Time;durP1;ratioP1;P1;durP2;ratioP2;P2;SDS_P1;SDS_P2;PMS_P1;PMS_P2;Temp;Humidity;BMP_temperature;BMP_pressure;BME280_temperature;BME280_humidity;BME280_pressure;Samples;Min_cycle;Max_cycle;Signal;HPM_P1;HPM_P2
2023/09/20 00:00:15;;;;;;;10.25;3.58;;;;;;;17.98;100.00;100754.78;5004128;28;20030;-89
2023/09/20 00:02:41;;;;;;;10.57;3.10;;;;;;;18.00;100.00;100760.00;4990674;28;20485;-90
2023/09/20 00:05:15;;;;;;;8.00;2.92;;;;;;;17.94;100.00;100753.38;4994604;28;20081;-89
2023/09/20 00:07:41;;;;;;;9.65;3.42;;;;;;;17.98;100.00;100754.78;4992532;28;20124;-89
2023/09/20 00:10:12;;;;;;;10.05;3.30;;;;;;;18.00;100.00;100754.63;5005387;28;20280;-90
2023/09/20 00:12:44;;;;;;;14.38;3.97;;;;;;;17.98;100.00;100751.22;5004393;28;20085;-87
2023/09/20 00:15:10;;;;;;;10.70;3.35;;;;;;;17.94;100.00;100750.66;4989985;28;20038;-86
2023/09/20 00:17:36;;;;;;;8.80;3.58;;;;;;;17.91;100.00;100753.66;4997082;28;20031;-88
2023/09/20 00:20:17;;;;;;;9.40;3.22;;;;;;;18.04;100.00;100753.34;4981993;28;20039;-87
2023/09/20 00:22:44;;;;;;;11.05;3.40;;;;;;;18.03;100.00;100757.88;4982939;28;20041;-89
2023/09/20 00:25:14;;;;;;;15.57;3.65;;;;;;;17.99;100.00;100761.03;5003892;28;20046;-89
2023/09/20 00:27:41;;;;;;;11.32;4.10;;;;;;;18.06;100.00;100756.72;5017033;28;20081;-87
2023/09/20 00:30:19;;;;;;;9.32;3.28;;;;;;;18.04;100.00;100750.63;4988442;28;20048;-87
2023/09/20 00:32:45;;;;;;;8.80;3.85;;;;;;;18.01;100.00;100745.53;4997872;28;20034;-87
2023/09/20 00:35:13;;;;;;;11.32;3.25;;;;;;;18.00;100.00;100746.53;4988999;28;20036;-88
2023/09/20 00:37:47;;;;;;;12.35;4.03;;;;;;;18.01;100.00;100742.81;4986620;28;20097;-87
2023/09/20 00:40:16;;;;;;;11.90;3.70;;;;;;;17.89;100.00;100746.72;5017786;28;20026;-89
2023/09/20 00:42:47;;;;;;;12.38;3.60;;;;;;;17.84;100.00;100761.50;5002598;28;20034;-89
2023/09/20 00:45:13;;;;;;;16.20;4.03;;;;;;;17.88;100.00;100739.63;5019484;28;20515;-88
2023/09/20 00:47:47;;;;;;;9.48;3.78;;;;;;;17.88;100.00;100745.88;4997220;28;20968;-87
2023/09/20 00:50:14;;;;;;;12.77;3.63;;;;;;;17.86;100.00;100747.84;4982747;28;20125;-88
2023/09/20 00:52:43;;;;;;;14.38;3.88;;;;;;;17.79;100.00;100750.28;4985766;28;20437;-90
2023/09/20 00:55:15;;;;;;;16.38;4.32;;;;;;;17.86;100.00;100742.44;4985976;28;20101;-90
2023/09/20 00:57:46;;;;;;;9.07;3.85;;;;;;;17.82;100.00;100747.31;4996568;28;20129;-87
2023/09/20 01:00:27;;;;;;;15.05;4.25;;;;;;;17.86;100.00;100747.84;5005496;28;20089;-87
2023/09/20 01:02:54;;;;;;;12.82;3.45;;;;;;;17.86;100.00;100743.28;5004800;28;20034;-87
2023/09/20 01:05:25;;;;;;;12.18;3.85;;;;;;;17.83;100.00;100740.91;5003981;28;20038;-89
2023/09/20 01:07:57;;;;;;;11.00;3.45;;;;;;;17.75;100.00;100739.94;5002222;28;20038;-86
2023/09/20 01:10:24;;;;;;;7.70;3.45;;;;;;;17.56;100.00;100749.72;4984341;28;20042;-90
2023/09/20 01:12:56;;;;;;;10.15;3.33;;;;;;;17.53;100.00;100744.63;4990219;28;20038;-87
2023/09/20 01:15:22;;;;;;;13.43;3.90;;;;;;;17.40;100.00;100745.94;4988188;28;20048;-87
2023/09/20 01:17:55;;;;;;;12.82;3.90;;;;;;;17.29;100.00;100747.78;5016832;28;20081;-89
2023/09/20 01:20:23;;;;;;;14.95;4.18;;;;;;;17.30;100.00;100754.88;5013185;28;20815;-89
2023/09/20 01:22:54;;;;;;;8.18;3.20;;;;;;;17.31;100.00;100751.16;5003609;28;20042;-87
2023/09/20 01:25:22;;;;;;;7.38;3.80;;;;;;;17.17;100.00;100746.25;4978128;28;21043;-87
2023/09/20 01:27:50;;;;;;;15.25;4.30;;;;;;;17.16;100.00;100749.91;4984008;28;20049;-88
2023/09/20 01:30:18;;;;;;;13.05;4.10;;;;;;;17.15;100.00;100748.22;4987963;28;20113;-87
2023/09/20 01:32:44;;;;;;;12.10;4.25;;;;;;;17.08;100.00;100747.09;4999875;28;20035;-86
2023/09/20 01:35:10;;;;;;;10.02;4.00;;;;;;;17.06;100.00;100749.91;5017453;28;20034;-86
2023/09/20 01:37:37;;;;;;;10.27;4.63;;;;;;;17.11;100.00;100736.00;5013618;28;20046;-86
2023/09/20 01:40:18;;;;;;;7.03;3.70;;;;;;;17.02;100.00;100740.44;4992628;28;20041;-86
2023/09/20 01:42:50;;;;;;;12.23;3.85;;;;;;;16.88;100.00;100732.75;4991999;28;20046;-86
2023/09/20 01:45:18;;;;;;;13.77;3.97;;;;;;;16.85;100.00;100732.19;5002083;28;20042;-87
2023/09/20 01:47:45;;;;;;;10.95;3.85;;;;;;;16.89;100.00;100739.84;5014218;28;20081;-86
2023/09/20 01:50:31;;;;;;;13.07;4.07;;;;;;;16.82;100.00;100730.63;5003451;28;20109;-86
2023/09/20 01:52:59;;;;;;;11.05;4.30;;;;;;;16.75;100.00;100729.47;5023093;28;20563;-86
2023/09/20 01:55:31;;;;;;;10.40;4.20;;;;;;;16.72;100.00;100721.69;5005316;28;20056;-87
2023/09/20 01:58:05;;;;;;;22.00;4.75;;;;;;;16.73;100.00;100726.06;5004737;28;20068;-90
2023/09/20 02:00:32;;;;;;;15.35;4.13;;;;;;;16.77;100.00;100722.13;4984985;28;20308;-89
2023/09/20 02:03:00;;;;;;;7.70;4.05;;;;;;;16.73;100.00;100721.53;5003472;28;20129;-89
2023/09/20 02:05:33;;;;;;;10.43;3.95;;;;;;;16.69;100.00;100727.31;5003321;28;20602;-89
2023/09/20 02:07:59;;;;;;;10.52;3.97;;;;;;;16.57;100.00;100732.81;4995052;28;20065;-89
2023/09/20 02:10:27;;;;;;;13.48;3.92;;;;;;;16.56;100.00;100725.72;4995531;28;20037;-88
2023/09/20 02:12:54;;;;;;;17.42;4.45;;;;;;;16.56;100.00;100719.47;4985438;28;20029;-89
2023/09/20 02:15:26;;;;;;;9.25;4.03;;;;;;;16.53;100.00;100720.63;5003283;28;20030;-87
2023/09/20 02:17:52;;;;;;;15.07;4.40;;;;;;;16.54;100.00;100721.47;5017520;28;20144;-90
2023/09/20 02:20:19;;;;;;;14.68;4.88;;;;;;;16.54;100.00;100716.94;4996546;28;20394;-89
2023/09/20 02:22:50;;;;;;;10.13;3.85;;;;;;;16.43;100.00;100700.91;4997963;28;20346;-88
2023/09/20 02:25:20;;;;;;;;;;;;;;;16.46;100.00;100706.00;5003295;28;20122;-90
2023/09/20 02:27:48;;;;;;;12.85;4.25;;;;;;;16.45;100.00;100712.38;4985686;28;19928;-88
2023/09/20 02:30:19;;;;;;;12.25;4.40;;;;;;;16.36;100.00;100717.72;4984409;28;20038;-89
2023/09/20 02:32:52;;;;;;;11.68;4.07;;;;;;;16.36;100.00;100713.19;4991915;28;20045;-89
2023/09/20 02:35:22;;;;;;;12.48;4.05;;;;;;;16.35;100.00;100718.72;4988892;28;20377;-87
2023/09/20 02:37:49;;;;;;;16.60;4.53;;;;;;;16.33;100.00;100715.34;5021008;28;20137;-89
2023/09/20 02:40:15;;;;;;;14.57;4.13;;;;;;;16.33;100.00;100707.25;4988216;28;20057;-87
2023/09/20 02:42:47;;;;;;;11.15;4.50;;;;;;;16.30;100.00;100713.75;4992171;28;20081;-89
2023/09/20 02:45:18;;;;;;;10.63;3.30;;;;;;;16.28;100.00;100707.66;5001908;28;20117;-89
2023/09/20 02:47:48;;;;;;;9.60;4.20;;;;;;;16.29;100.00;100707.53;5001604;28;20037;-90
2023/09/20 02:50:22;;;;;;;7.22;3.85;;;;;;;16.22;100.00;100703.69;5004107;28;20045;-88
2023/09/20 02:52:48;;;;;;;5.63;3.60;;;;;;;16.26;100.00;100701.56;5002695;28;21007;-89
2023/09/20 02:55:17;;;;;;;13.70;4.55;;;;;;;16.22;100.00;100689.41;4989261;28;20105;-88
2023/09/20 02:57:44;;;;;;;12.07;4.45;;;;;;;16.22;100.00;100689.41;4985720;28;20132;-88
2023/09/20 03:00:21;;;;;;;10.40;3.70;;;;;;;16.25;100.00;100699.88;5020767;28;20121;-88
2023/09/20 03:02:50;;;;;;;10.77;4.40;;;;;;;16.14;100.00;100690.06;5000368;28;20026;-87
2023/09/20 03:05:18;;;;;;;15.65;3.67;;;;;;;16.18;100.00;100690.66;5004008;28;20053;-88
2023/09/20 03:07:47;;;;;;;12.93;4.00;;;;;;;16.18;100.00;100685.28;5021290;28;20419;-88
2023/09/20 03:10:21;;;;;;;8.48;3.95;;;;;;;16.14;100.00;100682.00;4997061;28;20036;-87
2023/09/20 03:12:51;;;;;;;9.88;3.90;;;;;;;16.17;100.00;100679.03;5001220;28;20038;-88
2023/09/20 03:15:22;;;;;;;11.02;3.90;;;;;;;16.05;100.00;100675.59;5000011;28;20049;-88
2023/09/20 03:17:52;;;;;;;13.13;4.18;;;;;;;16.07;100.00;100675.47;4983901;28;20057;-88
2023/09/20 03:20:25;;;;;;;10.68;3.83;;;;;;;16.14;100.00;100673.06;4967474;28;20113;-87
2023/09/20 03:22:59;;;;;;;11.32;5.10;;;;;;;16.11;100.00;100681.41;4969131;28;20044;-87
2023/09/20 03:25:36;;;;;;;13.38;3.90;;;;;;;16.03;100.00;100672.19;4990461;28;20739;-88
2023/09/20 03:28:10;;;;;;;13.52;4.15;;;;;;;16.10;100.00;100677.03;4981007;28;20039;-88
2023/09/20 03:30:41;;;;;;;12.15;4.00;;;;;;;16.06;100.00;100673.75;5003760;28;20099;-87
2023/09/20 03:33:08;;;;;;;12.70;4.32;;;;;;;16.03;100.00;100672.19;4987643;28;20037;-87
2023/09/20 03:35:34;;;;;;;10.60;4.38;;;;;;;16.08;100.00;100666.41;4985899;28;20429;-88
2023/09/20 03:38:02;;;;;;;12.95;3.90;;;;;;;16.03;100.00;100671.34;5005447;28;20038;-89
2023/09/20 03:40:28;;;;;;;9.15;3.80;;;;;;;16.03;100.00;100672.19;4988824;28;20033;-87
2023/09/20 03:42:56;;;;;;;7.90;4.22;;;;;;;16.06;100.00;100676.44;4987789;28;20030;-87
2023/09/20 03:45:23;;;;;;;10.00;3.63;;;;;;;16.08;100.00;100674.47;5008018;28;20394;-87
2023/09/20 03:47:50;;;;;;;12.38;4.65;;;;;;;16.05;100.00;100674.75;4991842;28;20062;-89
2023/09/20 03:50:19;;;;;;;11.20;3.92;;;;;;;16.11;100.00;100676.88;4991257;28;20089;-87
2023/09/20 03:52:45;;;;;;;9.75;3.97;;;;;;;16.11;100.00;100676.88;4988904;28;20038;-88
2023/09/20 03:55:11;;;;;;;8.13;3.95;;;;;;;16.16;100.00;100673.78;5017270;28;20038;-88
2023/09/20 03:57:40;;;;;;;14.23;4.20;;;;;;;16.17;100.00;100672.81;5012922;28;20041;-88
2023/09/20 04:00:07;;;;;;;13.63;4.22;;;;;;;16.19;100.00;100668.97;4995205;28;20034;-87
2023/09/20 04:02:46;;;;;;;12.80;4.80;;;;;;;16.17;100.00;100662.91;5019056;28;20038;-87
2023/09/20 04:05:15;;;;;;;14.95;4.75;;;;;;;16.22;100.00;100665.19;4997752;28;20038;-88
2023/09/20 04:07:43;;;;;;;11.23;4.18;;;;;;;16.21;100.00;100661.59;5015006;28;20034;-88
2023/09/20 04:10:09;;;;;;;11.32;4.47;;;;;;;16.23;100.00;100656.09;5027940;28;20039;-88
2023/09/20 04:12:41;;;;;;;13.07;4.85;;;;;;;16.16;100.00;100652.25;4994409;28;20050;-88
2023/09/20 04:15:10;;;;;;;11.43;4.28;;;;;;;16.12;100.00;100651.69;5034906;28;20030;-88
2023/09/20 04:17:36;;;;;;;12.50;4.32;;;;;;;16.11;100.00;100655.34;4999091;28;20038;-88
2023/09/20 04:20:06;;;;;;;11.55;4.43;;;;;;;16.17;100.00;100645.91;5025947;28;20057;-88
2023/09/20 04:22:33;;;;;;;11.80;3.58;;;;;;;16.10;100.00;100648.28;5015530;28;20040;-87
2023/09/20 04:25:00;;;;;;;9.35;4.82;;;;;;;16.11;100.00;100647.28;5016870;28;20041;-87
2023/09/20 04:27:32;;;;;;;16.10;4.47;;;;;;;16.05;100.00;100650.53;4999654;28;20048;-89
2023/09/20 04:29:58;;;;;;;10.15;3.72;;;;;;;16.06;100.00;100652.22;4996335;28;20077;-88
2023/09/20 04:32:24;;;;;;;17.05;5.20;;;;;;;16.05;100.00;100646.00;4994961;28;20148;-88
2023/09/20 04:34:52;;;;;;;9.02;4.50;;;;;;;16.07;100.00;100653.09;4993407;28;21070;-88
2023/09/20 04:37:19;;;;;;;11.93;4.43;;;;;;;16.12;100.00;100649.00;5010670;28;20048;-88
2023/09/20 04:39:45;;;;;;;11.15;4.10;;;;;;;16.14;100.00;100649.72;5029962;28;20037;-88
2023/09/20 04:42:13;;;;;;;11.15;5.15;;;;;;;16.12;100.00;100646.31;5002841;28;20072;-89
2023/09/20 04:44:41;;;;;;;13.80;5.57;;;;;;;16.07;100.00;100645.88;4992616;28;20084;-88
2023/09/20 04:47:10;;;;;;;16.30;4.53;;;;;;;16.10;100.00;100648.28;5008866;28;20045;-88
2023/09/20 04:49:38;;;;;;;15.40;4.90;;;;;;;16.12;100.00;100651.69;5009923;28;20033;-88
2023/09/20 04:52:09;;;;;;;13.93;4.57;;;;;;;16.06;100.00;100646.84;5011357;28;20034;-88
2023/09/20 04:54:34;;;;;;;11.60;5.53;;;;;;;16.12;100.00;100640.09;5008798;28;20049;-89
2023/09/20 04:57:04;;;;;;;12.35;4.63;;;;;;;16.11;100.00;100641.06;5004083;28;20042;-90
2023/09/20 04:59:33;;;;;;;19.13;4.35;;;;;;;15.98;100.00;100644.84;4992219;28;20031;-88
2023/09/20 05:01:59;;;;;;;12.13;3.72;;;;;;;16.05;100.00;100650.53;4991426;28;20124;-88
2023/09/20 05:04:29;;;;;;;16.40;4.78;;;;;;;16.06;100.00;100654.91;4995257;28;20081;-88
2023/09/20 05:07:05;;;;;;;11.25;5.00;;;;;;;16.08;100.00;100660.19;4988279;28;20038;-90
2023/09/20 05:09:34;;;;;;;13.82;4.65;;;;;;;16.01;100.00;100659.84;4976978;28;20030;-90
2023/09/20 05:12:02;;;;;;;9.77;4.60;;;;;;;16.02;100.00;100664.28;5004117;28;20037;-88
2023/09/20 05:14:29;;;;;;;15.50;5.13;;;;;;;16.03;100.00;100664.13;5000175;28;20038;-89
2023/09/20 05:16:56;;;;;;;11.82;4.47;;;;;;;16.04;100.00;100667.66;4984482;28;20037;-88
2023/09/20 05:19:23;;;;;;;10.32;4.78;;;;;;;15.98;100.00;100657.47;4994282;28;20504;-89
2023/09/20 05:21:49;;;;;;;17.55;4.82;;;;;;;15.97;100.00;100659.28;4979626;28;20042;-89
2023/09/20 05:24:15;;;;;;;22.10;4.90;;;;;;;15.95;100.00;100657.72;5017934;28;20076;-87
2023/09/20 05:26:41;;;;;;;20.38;4.68;;;;;;;15.94;100.00;100662.25;5004698;28;20041;-89
2023/09/20 05:29:06;;;;;;;15.85;4.63;;;;;;;15.99;100.00;100660.00;4998305;28;20041;-88
2023/09/20 05:31:33;;;;;;;15.25;4.97;;;;;;;16.01;100.00;100662.53;4984177;28;20400;-91
2023/09/20 05:33:58;;;;;;;11.10;5.13;;;;;;;16.03;100.00;100655.22;4998693;28;20093;-88
2023/09/20 05:36:27;;;;;;;13.10;4.72;;;;;;;16.04;100.00;100654.22;4991999;28;20047;-88
2023/09/20 05:38:54;;;;;;;14.38;4.75;;;;;;;15.99;100.00;100653.78;5003409;28;20096;-91
2023/09/20 05:41:19;;;;;;;14.13;4.53;;;;;;;16.08;100.00;100650.25;5018083;28;20100;-89
2023/09/20 05:43:45;;;;;;;9.30;4.35;;;;;;;16.11;100.00;100646.44;5022629;28;20088;-91
2023/09/20 05:46:13;;;;;;;13.60;4.38;;;;;;;16.12;100.00;100645.47;5004541;28;20046;-91
2023/09/20 05:48:39;;;;;;;14.80;5.13;;;;;;;16.18;100.00;100637.69;4995043;28;20113;-89
2023/09/20 05:51:05;;;;;;;10.02;4.35;;;;;;;16.21;100.00;100636.53;5004237;28;20145;-90
2023/09/20 05:53:33;;;;;;;9.93;4.40;;;;;;;16.25;100.00;100638.81;4989414;28;20077;-90
2023/09/20 05:56:05;;;;;;;18.08;5.88;;;;;;;16.35;100.00;100640.69;4990974;28;20057;-91
2023/09/20 05:58:31;;;;;;;13.95;4.68;;;;;;;16.38;100.00;100640.41;5017086;28;20976;-91
2023/09/20 06:00:59;;;;;;;12.63;5.13;;;;;;;16.44;100.00;100631.78;4994949;28;20026;-87
2023/09/20 06:03:25;;;;;;;14.45;4.90;;;;;;;16.41;100.00;100638.28;5007747;28;20080;-89
2023/09/20 06:05:51;;;;;;;10.90;4.38;;;;;;;16.56;100.00;100625.25;5015273;28;20129;-88
2023/09/20 06:08:16;;;;;;;12.18;5.00;;;;;;;16.60;100.00;100632.06;5007817;28;20038;-89
2023/09/20 06:10:44;;;;;;;14.00;4.10;;;;;;;16.78;100.00;100634.94;5014603;28;20029;-88
2023/09/20 06:13:10;;;;;;;14.73;4.68;;;;;;;16.91;100.00;100631.94;5005535;28;20093;-89
2023/09/20 06:15:37;;;;;;;10.93;4.53;;;;;;;16.93;100.00;100630.81;5001281;28;20053;-89
2023/09/20 06:18:03;;;;;;;16.75;4.45;;;;;;;17.01;100.00;100628.25;4985389;28;20026;-91
2023/09/20 06:20:30;;;;;;;12.60;4.53;;;;;;;17.06;100.00;100623.28;5014545;28;20045;-88
2023/09/20 06:22:59;;;;;;;17.08;5.18;;;;;;;17.12;100.00;100619.16;4990513;28;20169;-90
2023/09/20 06:25:26;;;;;;;12.35;4.50;;;;;;;17.11;100.00;100617.44;4989287;28;20546;-88
2023/09/20 06:27:53;;;;;;;11.88;4.75;;;;;;;17.07;100.00;100622.31;5006021;28;20073;-91
2023/09/20 06:30:24;;;;;;;15.65;5.28;;;;;;;17.24;100.00;100618.00;5008042;28;20037;-90
2023/09/20 06:32:50;;;;;;;12.23;4.35;;;;;;;17.35;100.00;100625.06;4982634;28;20085;-91
2023/09/20 06:35:20;;;;;;;10.63;4.93;;;;;;;17.46;100.00;100621.31;4993420;28;20033;-88
2023/09/20 06:37:49;;;;;;;14.25;4.60;;;;;;;17.64;100.00;100621.41;5005265;28;20242;-89
2023/09/20 06:40:26;;;;;;;11.18;4.47;;;;;;;17.70;100.00;100616.28;5028320;28;20044;-90
2023/09/20 06:42:52;;;;;;;10.48;4.50;;;;;;;17.74;100.00;100619.56;5005908;28;20044;-91
2023/09/20 06:45:19;;;;;;;8.82;4.38;;;;;;;17.97;100.00;100611.91;5001512;28;20038;-90
2023/09/20 06:47:45;;;;;;;12.15;3.85;;;;;;;17.91;100.00;100605.25;5005945;28;20038;-91
2023/09/20 06:50:14;;;;;;;7.35;3.47;;;;;;;18.13;100.00;100612.13;5020231;28;20033;-89
2023/09/20 06:52:43;;;;;;;11.27;4.07;;;;;;;18.11;100.00;100606.84;5021623;28;20119;-88
2023/09/20 06:55:19;;;;;;;13.30;3.90;;;;;;;18.38;100.00;100602.41;5024729;28;20137;-90
2023/09/20 06:57:47;;;;;;;13.77;4.00;;;;;;;18.67;100.00;100612.13;5006075;28;20038;-90
2023/09/20 07:00:26;;;;;;;11.30;4.25;;;;;;;18.67;100.00;100604.88;5020340;28;20033;-89
2023/09/20 07:02:58;;;;;;;10.85;3.95;;;;;;;18.60;100.00;100611.91;5011373;28;20041;-88
2023/09/20 07:05:25;;;;;;;13.20;4.47;;;;;;;18.80;100.00;100605.34;5004984;28;20069;-90
2023/09/20 07:07:52;;;;;;;9.68;4.28;;;;;;;19.01;100.00;100609.56;5006270;28;20838;-90
2023/09/20 07:10:17;;;;;;;8.52;4.00;;;;;;;19.02;100.00;100598.59;5006826;28;20133;-91
2023/09/20 07:12:44;;;;;;;12.77;4.35;;;;;;;19.29;100.00;100602.16;4976233;28;20089;-88
2023/09/20 07:15:14;;;;;;;16.75;4.47;;;;;;;19.25;100.00;100596.22;5023563;28;20021;-88
2023/09/20 07:17:40;;;;;;;13.13;5.10;;;;;;;19.28;100.00;100578.84;5005955;28;20033;-87
2023/09/20 07:20:17;;;;;;;8.93;3.53;;;;;;;19.17;100.00;100601.56;5007493;28;20129;-88
2023/09/20 07:22:47;;;;;;;7.93;4.03;;;;;;;19.22;100.00;100596.53;4994963;28;20262;-91
2023/09/20 07:25:19;;;;;;;10.00;4.18;;;;;;;19.33;100.00;100590.88;5018890;28;20068;-90
2023/09/20 07:27:46;;;;;;;;;;;;;;;19.52;100.00;100584.38;5007828;28;20034;-89
2023/09/20 07:30:18;;;;;;;10.60;4.38;;;;;;;19.91;100.00;100587.44;4990495;28;19933;-90
2023/09/20 07:32:45;;;;;;;12.20;4.25;;;;;;;20.15;100.00;100580.41;5006555;28;20145;-89
2023/09/20 07:35:19;;;;;;;9.88;3.95;;;;;;;20.32;100.00;100578.56;4999602;28;20036;-88
2023/09/20 07:37:55;;;;;;;9.48;3.70;;;;;;;20.15;100.00;100581.25;4990352;28;20038;-92
2023/09/20 07:40:37;;;;;;;8.75;3.92;;;;;;;20.62;100.00;100579.81;5007519;28;20038;-89
2023/09/20 07:43:07;;;;;;;10.15;4.05;;;;;;;20.75;100.00;100585.59;5007485;28;20048;-91
2023/09/20 07:45:41;;;;;;;11.55;4.15;;;;;;;20.84;100.00;100586.44;5005916;28;20049;-90
2023/09/20 07:48:12;;;;;;;9.23;4.28;;;;;;;20.89;100.00;100592.19;5003320;28;20208;-89
2023/09/20 07:50:43;;;;;;;10.75;4.18;;;;;;;21.03;100.00;100582.50;4984332;28;20038;-90
2023/09/20 07:53:10;;;;;;;5.35;3.55;;;;;;;21.14;100.00;100577.59;5006915;28;20105;-89
2023/09/20 07:55:44;;;;;;;9.93;4.50;;;;;;;20.78;100.00;100579.81;5005677;28;20196;-88
2023/09/20 07:58:14;;;;;;;7.80;4.00;;;;;;;20.71;100.00;100572.53;5021653;28;20042;-88
2023/09/20 08:00:55;;;;;;;7.93;4.30;;;;;;;20.82;100.00;100583.88;5003870;28;20113;-90
2023/09/20 08:03:32;;;;;;;6.82;3.90;;;;;;;20.52;100.00;100573.72;5006306;28;20041;-89
2023/09/20 08:05:57;;;;;;;8.13;3.67;;;;;;;20.49;100.00;100566.78;5002044;28;20031;-88
2023/09/20 08:08:23;;;;;;;8.18;3.83;;;;;;;20.44;100.00;100583.50;5011853;28;20038;-91
2023/09/20 08:10:48;;;;;;;19.23;4.55;;;;;;;20.29;100.00;100579.78;5009689;28;20089;-91
2023/09/20 08:13:17;;;;;;;12.10;4.20;;;;;;;20.28;100.00;100569.09;5015342;28;20034;-88
2023/09/20 08:15:42;;;;;;;9.88;3.78;;;;;;;20.36;100.00;100577.22;5003193;28;20124;-88
2023/09/20 08:20:53;;;;;;;11.23;3.85;;;;;;;20.48;100.00;100572.34;5013211;28;20038;-91
2023/09/20 09:02:12;;;;;;;7.88;3.03;;;;;;;20.80;100.00;100601.34;4993571;28;21080;-92
2023/09/20 09:04:38;;;;;;;7.00;3.22;;;;;;;20.85;100.00;100601.69;5005027;28;20038;-89
2023/09/20 09:07:05;;;;;;;10.40;3.42;;;;;;;20.90;100.00;100602.88;5000337;28;20049;-93
2023/09/20 09:09:31;;;;;;;10.10;3.58;;;;;;;21.12;100.00;100614.88;4999031;28;20031;-92
2023/09/20 09:12:00;;;;;;;5.80;3.10;;;;;;;21.24;100.00;100606.41;5002900;28;20075;-88
2023/09/20 09:14:28;;;;;;;15.18;3.60;;;;;;;21.35;100.00;100606.06;5004061;28;20065;-92
2023/09/20 09:17:02;;;;;;;6.93;2.90;;;;;;;21.20;100.00;100609.44;4989480;28;20046;-90
2023/09/20 09:19:28;;;;;;;6.65;2.75;;;;;;;21.38;100.00;100613.84;4994419;28;20081;-89
2023/09/20 09:21:57;;;;;;;6.57;2.80;;;;;;;21.51;100.00;100606.00;5011643;28;20030;-91
2023/09/20 09:24:23;;;;;;;7.45;3.83;;;;;;;21.52;100.00;100604.97;5012232;28;20033;-90
2023/09/20 09:26:49;;;;;;;6.40;2.95;;;;;;;21.62;100.00;100602.06;4998947;28;20101;-92
2023/09/20 09:29:18;;;;;;;9.35;2.60;;;;;;;21.65;100.00;100607.16;5022871;28;20096;-88
2023/09/20 09:31:51;;;;;;;3.40;2.50;;;;;;;21.36;100.00;100602.31;5009039;28;20104;-91
2023/09/20 09:34:20;;;;;;;7.57;3.00;;;;;;;21.60;100.00;100602.25;4986197;28;20590;-91
2023/09/20 09:36:46;;;;;;;5.78;2.70;;;;;;;21.53;100.00;100597.69;5005889;28;20036;-92
2023/09/20 09:39:15;;;;;;;7.18;3.58;;;;;;;21.52;99.07;100596.84;5013579;28;20035;-93
2023/09/20 09:41:47;;;;;;;7.53;3.08;;;;;;;21.57;100.00;100594.44;5006574;28;20041;-88
2023/09/20 09:44:16;;;;;;;12.57;3.08;;;;;;;21.60;100.00;100596.00;4997993;28;20027;-90
2023/09/20 09:46:42;;;;;;;9.95;3.30;;;;;;;21.70;99.45;100600.19;5004782;28;20042;-91
2023/09/20 09:49:12;;;;;;;8.60;3.95;;;;;;;21.88;96.56;100594.50;4990603;28;20128;-92
2023/09/20 09:51:45;;;;;;;4.72;3.45;;;;;;;21.85;97.82;100592.16;5022821;28;20042;-92
2023/09/20 09:54:12;;;;;;;9.57;3.83;;;;;;;21.69;97.33;100595.78;5006232;28;20104;-93
2023/09/20 09:56:41;;;;;;;11.38;3.42;;;;;;;21.60;95.13;100580.53;5005330;28;20042;-91
2023/09/20 09:59:09;;;;;;;9.68;3.90;;;;;;;21.54;96.08;100592.09;4980676;28;20068;-91
2023/09/20 10:01:38;;;;;;;10.10;3.92;;;;;;;21.57;95.35;100590.91;5016309;28;20030;-88
2023/09/20 10:04:12;;;;;;;8.80;3.85;;;;;;;21.66;94.41;100585.25;5009008;28;20125;-89
2023/09/20 10:07:16;;;;;;;8.93;4.10;;;;;;;21.54;95.89;100586.69;5006138;28;20038;-90
2023/09/20 10:09:45;;;;;;;7.43;3.97;;;;;;;21.59;94.58;100565.28;5001382;28;20057;-89
2023/09/20 10:12:11;;;;;;;10.45;4.07;;;;;;;21.71;95.20;100579.31;5008768;28;20145;-91
2023/09/20 10:14:38;;;;;;;8.93;3.78;;;;;;;21.65;95.68;100583.59;4980535;28;20050;-90
2023/09/20 10:17:06;;;;;;;7.40;3.20;;;;;;;21.77;96.84;100572.31;5001615;28;20046;-92
2023/09/20 10:19:33;;;;;;;8.82;3.15;;;;;;;21.49;96.01;100578.22;5021886;28;20053;-90
2023/09/20 10:22:09;;;;;;;6.63;3.25;;;;;;;21.58;97.40;100563.56;5002904;28;20069;-89
2023/09/20 10:24:57;;;;;;;8.68;3.50;;;;;;;21.48;98.31;100568.38;5011579;28;20135;-89
2023/09/20 10:27:35;;;;;;;11.15;3.72;;;;;;;21.68;99.09;100566.09;5018631;28;20031;-89
2023/09/20 10:30:09;;;;;;;8.02;3.40;;;;;;;21.72;98.12;100562.84;5012099;28;20128;-88
2023/09/20 10:32:47;;;;;;;12.43;3.40;;;;;;;22.05;97.93;100562.69;4998283;28;20440;-89
2023/09/20 10:35:30;;;;;;;6.45;3.15;;;;;;;22.36;98.34;100557.25;5003351;28;20038;-90
2023/09/20 10:38:07;;;;;;;4.03;2.53;;;;;;;22.35;96.62;100565.59;4992369;28;20038;-92
2023/09/20 10:40:55;;;;;;;7.70;2.85;;;;;;;22.60;95.65;100567.09;5013293;28;20035;-92
2023/09/20 10:43:43;;;;;;;7.65;2.88;;;;;;;22.75;94.21;100567.13;5033072;28;20337;-89
2023/09/20 10:46:20;;;;;;;7.97;3.00;;;;;;;23.20;91.32;100558.06;4996489;28;20197;-91
2023/09/20 10:48:50;;;;;;;3.10;2.50;;;;;;;23.25;89.77;100557.50;5029732;28;20120;-90
2023/09/20 10:51:48;;;;;;;7.63;2.65;;;;;;;23.19;90.52;100559.09;5009121;28;20034;-88
2023/09/20 10:54:22;;;;;;;8.50;2.97;;;;;;;23.30;88.62;100555.06;5017752;28;20034;-89
2023/09/20 10:56:50;;;;;;;5.40;2.78;;;;;;;23.35;87.90;100540.91;5007238;28;20123;-89
2023/09/20 10:59:34;;;;;;;4.75;2.70;;;;;;;23.19;89.18;100547.34;5017701;28;20056;-90
2023/09/20 11:02:13;;;;;;;9.05;3.03;;;;;;;23.14;88.91;100542.47;5032602;28;20035;-89
2023/09/20 11:04:40;;;;;;;9.10;2.67;;;;;;;23.05;90.08;100538.16;5014345;28;20042;-87
2023/09/20 11:07:07;;;;;;;8.63;3.35;;;;;;;22.84;90.91;100538.84;5018101;28;20041;-88
2023/09/20 11:09:33;;;;;;;8.32;2.55;;;;;;;22.80;90.44;100533.97;5019494;28;20040;-91
2023/09/20 11:12:06;;;;;;;4.10;2.45;;;;;;;22.87;91.07;100541.19;4990374;28;20038;-93
2023/09/20 11:14:33;;;;;;;5.88;2.42;;;;;;;22.82;91.03;100531.91;4998552;28;20035;-88
2023/09/20 11:17:00;;;;;;;6.90;2.55;;;;;;;23.05;91.36;100534.59;5009323;28;20068;-89
2023/09/20 11:19:30;;;;;;;5.18;2.67;;;;;;;23.03;91.66;100542.09;5009646;28;20042;-92
2023/09/20 11:21:58;;;;;;;5.40;2.33;;;;;;;23.08;90.39;100539.66;5030219;28;20037;-92
2023/09/20 11:24:28;;;;;;;3.60;2.15;;;;;;;23.24;89.95;100524.00;5017796;28;20038;-88
2023/09/20 11:26:57;;;;;;;6.90;2.17;;;;;;;23.13;89.93;100513.56;5021723;28;20054;-90
2023/09/20 11:29:24;;;;;;;5.63;2.10;;;;;;;23.30;90.18;100527.00;5007526;28;20053;-91
2023/09/20 11:31:55;;;;;;;3.63;2.40;;;;;;;23.36;90.31;100526.25;4994746;28;20053;-90
2023/09/20 11:34:21;;;;;;;5.00;2.38;;;;;;;23.45;88.01;100517.81;4989284;28;20125;-90
2023/09/20 11:36:47;;;;;;;5.30;2.10;;;;;;;23.63;88.02;100519.28;5002252;28;20038;-90
2023/09/20 11:39:22;;;;;;;4.47;2.00;;;;;;;23.72;86.32;100516.28;5015660;28;20145;-90
2023/09/20 11:41:50;;;;;;;7.72;2.25;;;;;;;23.41;86.26;100519.22;5016641;28;20034;-91
2023/09/20 11:44:23;;;;;;;7.38;2.58;;;;;;;23.50;88.55;100519.97;5027502;28;20034;-89
2023/09/20 11:47:00;;;;;;;10.68;2.17;;;;;;;23.46;85.27;100511.31;5015688;28;20058;-90
2023/09/20 11:49:29;;;;;;;2.65;1.70;;;;;;;23.76;84.31;100506.69;4995777;28;20129;-88
2023/09/20 11:51:59;;;;;;;8.13;1.95;;;;;;;23.50;84.39;100515.34;5003957;28;20038;-92
2023/09/20 11:54:34;;;;;;;2.90;1.70;;;;;;;23.64;83.87;100510.09;5019143;28;20054;-89
2023/09/20 11:57:02;;;;;;;6.15;2.05;;;;;;;23.56;83.57;100513.75;5010916;28;20040;-92
2023/09/20 11:59:28;;;;;;;3.58;1.85;;;;;;;23.36;84.17;100512.66;5014660;28;20061;-88
2023/09/20 12:01:55;;;;;;;3.13;1.80;;;;;;;23.89;83.72;100502.44;5011202;28;20065;-89
2023/09/20 12:04:24;;;;;;;3.13;1.83;;;;;;;23.50;83.89;100498.19;5015502;28;20086;-89
2023/09/20 12:06:51;;;;;;;7.30;2.05;;;;;;;23.70;86.50;100493.88;5031583;28;20049;-92